createdAt,value
2022-10-30T00:01:14.748Z,100769.59
2022-10-30T00:03:41.911Z,100777.22
2022-10-30T00:06:09.165Z,100778.66
2022-10-30T00:08:36.588Z,100774.94
2022-10-30T00:11:13.104Z,100778.13
2022-10-30T00:13:44.570Z,100777.41
2022-10-30T00:16:11.905Z,100771.28
2022-10-30T00:18:42.125Z,100771.69
2022-10-30T00:21:15.719Z,100770.69
2022-10-30T00:23:52.611Z,100773.50
2022-10-30T00:26:23.042Z,100765.28
2022-10-30T00:28:52.787Z,100770.91
2022-10-30T00:31:20.232Z,100770.09
2022-10-30T00:33:55.061Z,100770.19
2022-10-30T00:36:23.340Z,100764.75
2022-10-30T00:38:50.631Z,100759.00
2022-10-30T00:41:24.734Z,100761.69
2022-10-30T00:43:52.646Z,100760.53
2022-10-30T00:46:39.424Z,100759.28
2022-10-30T00:49:16.075Z,100757.47
2022-10-30T00:51:53.715Z,100755.09
2022-10-30T00:54:22.184Z,100748.81
2022-10-30T00:56:52.431Z,100756.03
2022-10-30T00:59:27.964Z,100754.56
2022-10-30T01:01:56.062Z,100753.41
2022-10-30T01:04:28.942Z,100757.03
2022-10-30T01:07:00.273Z,100752.41
2022-10-30T01:09:27.541Z,100740.75
2022-10-30T01:11:58.070Z,100748.63
2022-10-30T01:14:25.580Z,100746.53
2022-10-30T01:17:34.037Z,100756.53
2022-10-30T01:20:31.694Z,100749.94
2022-10-30T01:23:49.724Z,100741.13
2022-10-30T01:27:03.020Z,100745.91
2022-10-30T01:30:10.847Z,100746.91
2022-10-30T01:33:34.831Z,100744.66
2022-10-30T01:36:32.282Z,100742.84
2022-10-30T01:39:28.708Z,100747.00
2022-10-30T01:41:55.962Z,100742.56
2022-10-30T01:44:33.086Z,100735.34
2022-10-30T01:47:27.499Z,100744.66
2022-10-30T01:50:31.592Z,100736.97
2022-10-30T01:53:27.206Z,100738.81
2022-10-30T01:56:32.511Z,100734.09
2022-10-30T01:59:32.370Z,100732.84
2022-10-30T02:01:59.746Z,100735.47
2022-10-30T02:04:27.470Z,100737.91
2022-10-30T02:06:54.833Z,100735.97
2022-10-30T02:09:23.041Z,100739.06
2022-10-30T02:11:53.044Z,100734.28
2022-10-30T02:14:37.811Z,100726.69
2022-10-30T02:17:08.310Z,100726.88
2022-10-30T02:19:36.025Z,100720.91
2022-10-30T02:22:04.023Z,100722.78
2022-10-30T02:24:33.362Z,100727.41
2022-10-30T02:27:00.922Z,100728.66
2022-10-30T02:29:28.476Z,100720.19
2022-10-30T02:31:55.686Z,100723.78
2022-10-30T02:34:22.987Z,100720.44
2022-10-30T02:36:50.184Z,100720.91
2022-10-30T02:39:18.066Z,100721.00
2022-10-30T02:41:45.277Z,100717.84
2022-10-30T02:44:12.784Z,100718.56
2022-10-30T02:46:40.190Z,100715.84
2022-10-30T02:49:07.504Z,100719.06
2022-10-30T02:51:34.856Z,100710.06
2022-10-30T02:54:02.048Z,100714.66
2022-10-30T02:56:30.154Z,100708.59
2022-10-30T02:58:57.417Z,100714.56
2022-10-30T03:01:24.841Z,100712.59
2022-10-30T03:03:55.760Z,100708.19
2022-10-30T03:06:23.958Z,100704.47
2022-10-30T03:08:51.589Z,100707.00
2022-10-30T03:11:20.875Z,100710.63
2022-10-30T03:13:49.566Z,100703.91
2022-10-30T03:16:22.721Z,100708.97
2022-10-30T03:18:53.792Z,100703.13
2022-10-30T03:21:26.082Z,100704.19
2022-10-30T03:23:54.834Z,100703.13
2022-10-30T03:26:22.826Z,100708.28
2022-10-30T03:29:03.657Z,100708.22
2022-10-30T03:31:32.622Z,100709.50
2022-10-30T03:34:13.352Z,100709.69
2022-10-30T03:36:42.200Z,100715.19
2022-10-30T03:39:09.432Z,100706.66
2022-10-30T03:41:37.002Z,100715.00
2022-10-30T03:44:04.466Z,100718.44
2022-10-30T03:46:31.655Z,100723.50
2022-10-30T03:49:12.513Z,100718.25
2022-10-30T03:51:39.740Z,100718.44
2022-10-30T03:54:06.934Z,100726.09
2022-10-30T03:56:34.881Z,100719.38
2022-10-30T03:59:04.332Z,100726.50
2022-10-30T04:01:32.002Z,100723.88
2022-10-30T04:04:00.113Z,100722.97
2022-10-30T04:06:27.440Z,100718.00
2022-10-30T04:08:56.549Z,100713.66
2022-10-30T04:11:24.954Z,100714.06
2022-10-30T04:13:52.074Z,100709.50
2022-10-30T04:16:19.334Z,100717.53
2022-10-30T04:18:46.492Z,100717.44
2022-10-30T04:21:13.644Z,100717.34
2022-10-30T04:23:40.955Z,100721.31
2022-10-30T04:26:09.657Z,100725.25
2022-10-30T04:28:39.710Z,100726.66
2022-10-30T04:31:06.944Z,100724.66
2022-10-30T04:33:34.475Z,100726.19
2022-10-30T04:36:02.032Z,100723.56
2022-10-30T04:38:31.370Z,100731.13
2022-10-30T04:40:58.720Z,100724.19
2022-10-30T04:43:40.526Z,100725.00
2022-10-30T04:46:08.635Z,100724.81
2022-10-30T04:48:37.132Z,100719.16
2022-10-30T04:51:05.493Z,100718.25
2022-10-30T04:53:32.788Z,100722.69
2022-10-30T04:56:06.645Z,100718.75
2022-10-30T04:58:34.002Z,100718.88
2022-10-30T05:01:06.838Z,100719.06
2022-10-30T05:03:35.174Z,100715.25
2022-10-30T05:06:25.203Z,100716.38
2022-10-30T05:08:52.859Z,100721.03
2022-10-30T05:11:30.120Z,100723.50
2022-10-30T05:13:57.371Z,100719.88
2022-10-30T05:16:24.651Z,100721.78
2022-10-30T05:18:52.772Z,100709.69
2022-10-30T05:21:19.966Z,100711.59
2022-10-30T05:23:47.256Z,100710.09
2022-10-30T05:26:14.845Z,100698.50
2022-10-30T05:28:42.559Z,100703.66
2022-10-30T05:31:09.895Z,100702.84
2022-10-30T05:33:55.720Z,100702.63
2022-10-30T05:36:24.671Z,100696.25
2022-10-30T05:38:52.101Z,100695.03
2022-10-30T05:41:32.795Z,100701.59
2022-10-30T05:44:00.082Z,100699.50
2022-10-30T05:46:27.317Z,100701.28
2022-10-30T05:48:56.044Z,100705.13
2022-10-30T05:51:24.348Z,100700.06
2022-10-30T05:53:55.624Z,100704.59
2022-10-30T05:56:27.002Z,100708.75
2022-10-30T05:58:56.705Z,100707.19
2022-10-30T06:01:24.120Z,100707.28
2022-10-30T06:03:55.031Z,100709.72
2022-10-30T06:06:22.434Z,100716.16
2022-10-30T06:08:50.476Z,100715.63
2022-10-30T06:11:34.605Z,100713.09
2022-10-30T06:14:01.916Z,100715.13
2022-10-30T06:16:43.676Z,100724.72
2022-10-30T06:19:29.670Z,100714.78
2022-10-30T06:22:07.512Z,100717.50
2022-10-30T06:24:41.521Z,100718.41
2022-10-30T06:27:19.155Z,100723.84
2022-10-30T06:29:46.395Z,100718.59
2022-10-30T06:32:13.566Z,100717.16
2022-10-30T06:34:44.795Z,100718.53
2022-10-30T06:37:13.382Z,100723.81
2022-10-30T06:39:40.760Z,100721.00
2022-10-30T06:42:26.950Z,100719.00
2022-10-30T06:45:06.828Z,100720.91
2022-10-30T06:47:38.647Z,100719.63
2022-10-30T06:50:09.904Z,100724.34
2022-10-30T06:52:38.130Z,100720.00
2022-10-30T06:55:06.354Z,100725.72
2022-10-30T06:58:05.816Z,100722.16
2022-10-30T07:00:51.698Z,100724.88
2022-10-30T07:03:35.248Z,100727.34
2022-10-30T07:06:03.547Z,100726.44
2022-10-30T07:08:30.810Z,100725.47
2022-10-30T07:10:58.666Z,100722.88
2022-10-30T07:13:37.409Z,100723.38
2022-10-30T07:16:19.108Z,100725.53
2022-10-30T07:18:48.554Z,100729.50
2022-10-30T07:21:15.832Z,100725.47
2022-10-30T07:23:43.111Z,100728.25
2022-10-30T07:26:30.611Z,100733.91
2022-10-30T07:29:04.093Z,100733.50
2022-10-30T07:32:02.214Z,100736.72
2022-10-30T07:34:35.127Z,100734.81
2022-10-30T07:37:20.675Z,100732.72
2022-10-30T07:39:56.689Z,100733.19
2022-10-30T07:42:44.342Z,100734.53
2022-10-30T07:45:30.502Z,100729.25
2022-10-30T07:48:17.874Z,100732.50
2022-10-30T07:50:57.968Z,100734.91
2022-10-30T07:53:26.261Z,100740.78
2022-10-30T07:55:53.687Z,100738.53
2022-10-30T07:58:44.355Z,100731.72
2022-10-30T08:01:51.565Z,100725.13
2022-10-30T08:04:41.883Z,100727.19
2022-10-30T08:07:34.393Z,100734.56
2022-10-30T08:10:02.159Z,100734.03
2022-10-30T08:12:29.817Z,100736.22
2022-10-30T08:14:56.995Z,100733.22
2022-10-30T08:17:24.623Z,100736.34
2022-10-30T08:19:51.876Z,100741.94
2022-10-30T08:22:19.223Z,100744.88
2022-10-30T08:24:55.201Z,100741.44
2022-10-30T08:27:22.356Z,100741.78
2022-10-30T08:29:49.526Z,100746.50
2022-10-30T08:32:18.004Z,100742.47
2022-10-30T08:35:05.950Z,100741.94
2022-10-30T08:37:33.205Z,100738.63
2022-10-30T08:40:00.650Z,100730.72
2022-10-30T08:42:37.279Z,100727.88
2022-10-30T08:45:09.838Z,100727.22
2022-10-30T08:48:03.494Z,100726.78
2022-10-30T08:50:35.351Z,100729.78
2022-10-30T08:53:06.375Z,100727.41
2022-10-30T08:55:35.907Z,100730.38
2022-10-30T08:58:06.091Z,100727.38
2022-10-30T09:00:34.199Z,100723.28
2022-10-30T09:03:13.572Z,100726.91
2022-10-30T09:06:01.119Z,100720.09
2022-10-30T09:09:00.186Z,100719.53
2022-10-30T09:11:35.384Z,100721.50
2022-10-30T09:14:02.672Z,100717.44
2022-10-30T09:16:29.933Z,100731.06
2022-10-30T09:18:57.279Z,100716.63
2022-10-30T09:21:24.459Z,100721.25
2022-10-30T09:23:53.863Z,100713.63
2022-10-30T09:26:43.824Z,100709.34
2022-10-30T09:29:31.078Z,100712.25
2022-10-30T09:32:10.044Z,100713.69
2022-10-30T09:34:50.562Z,100714.97
2022-10-30T09:37:27.231Z,100712.78
2022-10-30T09:39:59.600Z,100718.28
2022-10-30T09:42:43.044Z,100717.53
2022-10-30T09:46:06.791Z,100709.94
2022-10-30T09:49:42.280Z,100721.47
2022-10-30T09:52:51.289Z,100719.56
2022-10-30T09:56:05.518Z,100716.56
2022-10-30T09:59:04.178Z,100712.13
2022-10-30T10:01:44.741Z,100711.28
2022-10-30T10:04:43.903Z,100715.25
2022-10-30T10:07:24.198Z,100712.19
2022-10-30T10:10:34.408Z,100704.94
2022-10-30T10:14:09.840Z,100715.44
2022-10-30T10:16:42.202Z,100710.75
2022-10-30T10:19:47.790Z,100714.84
2022-10-30T10:22:39.498Z,100709.50
2022-10-30T10:25:15.836Z,100705.19
2022-10-30T10:28:36.788Z,100696.38
2022-10-30T10:31:44.915Z,100687.97
2022-10-30T10:35:03.028Z,100690.94
2022-10-30T10:37:53.264Z,100691.75
2022-10-30T10:41:28.766Z,100685.34
2022-10-30T10:44:31.623Z,100686.16
2022-10-30T10:47:15.539Z,100680.91
2022-10-30T10:50:18.987Z,100687.75
2022-10-30T10:53:26.807Z,100679.06
2022-10-30T10:55:59.957Z,100673.84
2022-10-30T10:58:52.100Z,100674.72
2022-10-30T11:01:37.443Z,100664.06
2022-10-30T11:04:39.522Z,100666.78
2022-10-30T11:07:30.806Z,100664.72
2022-10-30T11:09:59.133Z,100664.34
2022-10-30T11:12:36.389Z,100652.72
2022-10-30T11:15:58.772Z,100656.44
2022-10-30T11:18:25.986Z,100657.91
2022-10-30T11:21:13.472Z,100651.09
2022-10-30T11:23:49.446Z,100651.56
2022-10-30T11:26:22.208Z,100649.31
2022-10-30T11:28:59.075Z,100650.59
2022-10-30T11:31:42.443Z,100642.47
2022-10-30T11:34:18.570Z,100640.22
2022-10-30T11:36:51.324Z,100644.13
2022-10-30T11:40:02.044Z,100635.22
2022-10-30T11:42:29.700Z,100640.75
2022-10-30T11:44:57.315Z,100636.50
2022-10-30T11:47:38.705Z,100627.78
2022-10-30T11:50:20.103Z,100624.22
2022-10-30T11:52:52.566Z,100630.50
2022-10-30T11:55:45.516Z,100623.59
2022-10-30T11:58:30.991Z,100622.81
2022-10-30T12:01:28.619Z,100618.31
2022-10-30T12:03:59.225Z,100617.19
2022-10-30T12:06:29.471Z,100611.13
2022-10-30T12:09:17.013Z,100608.59
2022-10-30T12:11:45.370Z,100602.47
2022-10-30T12:14:30.947Z,100599.94
2022-10-30T12:16:58.658Z,100598.94
2022-10-30T12:19:26.471Z,100588.38
2022-10-30T12:21:58.570Z,100590.25
2022-10-30T12:24:39.468Z,100583.91
2022-10-30T12:27:18.122Z,100585.16
2022-10-30T12:30:17.947Z,100572.13
2022-10-30T12:33:12.554Z,100574.03
2022-10-30T12:35:48.265Z,100567.91
2022-10-30T12:38:39.632Z,100573.44
2022-10-30T12:42:11.683Z,100558.34
2022-10-30T12:44:49.665Z,100561.00
2022-10-30T12:47:48.711Z,100569.06
2022-10-30T12:51:19.886Z,100562.66
2022-10-30T12:54:39.252Z,100556.69
2022-10-30T12:57:16.281Z,100554.09
2022-10-30T13:00:03.657Z,100559.38
2022-10-30T13:03:28.972Z,100553.19
2022-10-30T13:06:02.850Z,100555.91
2022-10-30T13:08:47.243Z,100554.19
2022-10-30T13:11:52.455Z,100545.50
2022-10-30T13:14:59.159Z,100544.69
2022-10-30T13:17:28.511Z,100543.72
2022-10-30T13:19:55.728Z,100536.50
2022-10-30T13:22:42.823Z,100534.81
2022-10-30T13:25:34.075Z,100527.13
2022-10-30T13:28:13.346Z,100536.06
2022-10-30T13:31:56.770Z,100529.00
2022-10-30T13:34:48.355Z,100526.34
2022-10-30T13:37:49.929Z,100518.53
2022-10-30T13:40:36.302Z,100522.25
2022-10-30T13:43:15.569Z,100528.97
2022-10-30T13:46:49.050Z,100517.31
2022-10-30T13:50:02.196Z,100509.41
2022-10-30T13:52:35.444Z,100518.34
2022-10-30T13:55:32.967Z,100520.09
2022-10-30T13:58:36.764Z,100513.72
2022-10-30T14:01:21.583Z,100511.03
2022-10-30T14:04:20.094Z,100512.78
2022-10-30T14:07:11.744Z,100509.25
2022-10-30T14:10:11.590Z,100503.91
2022-10-30T14:13:07.779Z,100496.97
2022-10-30T14:15:42.778Z,100496.22
2022-10-30T14:18:12.909Z,100496.09
2022-10-30T14:20:48.514Z,100492.50
2022-10-30T14:23:37.659Z,100503.19
2022-10-30T14:26:10.505Z,100497.69
2022-10-30T14:28:43.505Z,100490.50
2022-10-30T14:31:20.509Z,100498.50
2022-10-30T14:33:51.165Z,100495.06
2022-10-30T14:36:21.608Z,100497.09
2022-10-30T14:39:10.654Z,100495.81
2022-10-30T14:42:08.459Z,100488.69
2022-10-30T14:45:06.478Z,100488.63
2022-10-30T14:47:58.539Z,100492.13
2022-10-30T14:50:59.478Z,100491.84
2022-10-30T14:54:19.706Z,100489.06
2022-10-30T14:56:52.951Z,100493.31
2022-10-30T14:59:32.155Z,100495.78
2022-10-30T15:02:14.693Z,100492.22
2022-10-30T15:05:16.429Z,100496.59
2022-10-30T15:07:58.517Z,100498.16
2022-10-30T15:10:36.235Z,100488.31
2022-10-30T15:13:23.904Z,100490.97
2022-10-30T15:16:08.279Z,100486.44
2022-10-30T15:18:35.653Z,100487.44
2022-10-30T15:21:08.084Z,100484.41
2022-10-30T15:23:37.319Z,100482.19
2022-10-30T15:26:20.050Z,100477.91
2022-10-30T15:28:51.815Z,100473.47
2022-10-30T15:31:24.846Z,100476.78
2022-10-30T15:33:54.352Z,100477.59
2022-10-30T15:36:35.816Z,100474.50
2022-10-30T15:39:19.837Z,100469.47
2022-10-30T15:42:01.565Z,100472.59
2022-10-30T15:44:41.808Z,100469.50
2022-10-30T15:47:18.783Z,100468.25
2022-10-30T15:49:54.508Z,100474.22
2022-10-30T15:52:31.732Z,100479.22
2022-10-30T15:55:09.631Z,100482.41
2022-10-30T15:58:07.111Z,100479.31
2022-10-30T16:00:37.575Z,100482.22
2022-10-30T16:03:17.851Z,100479.97
2022-10-30T16:05:45.342Z,100484.13
2022-10-30T16:08:24.826Z,100482.00
2022-10-30T16:10:56.095Z,100481.50
2022-10-30T16:13:30.838Z,100481.78
2022-10-30T16:16:00.268Z,100481.34
2022-10-30T16:18:32.127Z,100481.78
2022-10-30T16:21:09.727Z,100492.97
2022-10-30T16:23:51.846Z,100484.84
2022-10-30T16:26:37.391Z,100484.44
2022-10-30T16:29:24.745Z,100490.22
2022-10-30T16:31:52.800Z,100490.78
2022-10-30T16:34:37.852Z,100496.63
2022-10-30T16:37:09.611Z,100496.50
2022-10-30T16:39:37.908Z,100500.47
2022-10-30T16:42:05.469Z,100502.06
2022-10-30T16:44:35.724Z,100500.84
2022-10-30T16:47:17.760Z,100503.16
2022-10-30T16:50:15.608Z,100502.78
2022-10-30T16:52:43.733Z,100501.59
2022-10-30T16:55:22.914Z,100506.84
2022-10-30T16:57:57.579Z,100504.00
2022-10-30T17:00:31.525Z,100510.91
2022-10-30T17:03:10.811Z,100512.34
2022-10-30T17:05:40.297Z,100519.25
2022-10-30T17:08:42.929Z,100522.41
2022-10-30T17:11:41.958Z,100527.47
2022-10-30T17:14:22.882Z,100533.34
2022-10-30T17:17:01.650Z,100536.69
2022-10-30T17:19:31.727Z,100535.41
2022-10-30T17:22:09.222Z,100540.44
2022-10-30T17:24:38.477Z,100539.44
2022-10-30T17:27:27.592Z,100536.53
2022-10-30T17:29:55.448Z,100543.25
2022-10-30T17:32:31.011Z,100538.63
2022-10-30T17:35:02.033Z,100541.97
2022-10-30T17:37:29.531Z,100546.94
2022-10-30T17:39:56.720Z,100546.78
2022-10-30T17:42:24.097Z,100545.84
2022-10-30T17:44:51.443Z,100546.53
2022-10-30T17:47:20.709Z,100548.13
2022-10-30T17:49:49.332Z,100555.06
2022-10-30T17:52:22.399Z,100553.19
2022-10-30T17:54:49.957Z,100549.38
2022-10-30T17:57:17.359Z,100557.13
2022-10-30T17:59:44.543Z,100557.00
2022-10-30T18:02:19.630Z,100557.78
2022-10-30T18:04:48.902Z,100565.53
2022-10-30T18:07:17.486Z,100566.28
2022-10-30T18:09:44.879Z,100569.69
2022-10-30T18:12:16.894Z,100570.38
2022-10-30T18:14:45.568Z,100577.25
2022-10-30T18:17:13.101Z,100569.09
2022-10-30T18:19:40.292Z,100568.00
2022-10-30T18:22:09.678Z,100580.22
2022-10-30T18:24:36.816Z,100580.22
2022-10-30T18:27:04.073Z,100586.16
2022-10-30T18:29:31.393Z,100586.75
2022-10-30T18:31:58.568Z,100588.41
2022-10-30T18:34:25.748Z,100590.97
2022-10-30T18:36:52.865Z,100589.97
2022-10-30T18:39:20.031Z,100587.88
2022-10-30T18:41:49.403Z,100593.03
2022-10-30T18:44:18.444Z,100588.41
2022-10-30T18:46:46.389Z,100589.00
2022-10-30T18:49:13.895Z,100590.59
2022-10-30T18:51:41.802Z,100593.09
2022-10-30T18:54:15.245Z,100588.41
2022-10-30T18:56:42.960Z,100588.13
2022-10-30T18:59:10.400Z,100591.31
2022-10-30T19:01:38.286Z,100591.94
2022-10-30T19:04:19.277Z,100591.88
2022-10-30T19:06:49.013Z,100594.38
2022-10-30T19:09:16.127Z,100591.69
2022-10-30T19:11:44.504Z,100591.59
2022-10-30T19:14:13.678Z,100599.38
2022-10-30T19:16:41.275Z,100595.88
2022-10-30T19:19:08.419Z,100595.22
2022-10-30T19:21:36.101Z,100596.94
2022-10-30T19:24:13.197Z,100587.94
2022-10-30T19:26:40.681Z,100594.81
2022-10-30T19:29:07.799Z,100599.94
2022-10-30T19:31:34.952Z,100604.34
2022-10-30T19:34:02.173Z,100597.16
2022-10-30T19:36:37.276Z,100599.50
2022-10-30T19:39:15.675Z,100598.41
2022-10-30T19:41:43.102Z,100591.06
2022-10-30T19:44:10.568Z,100588.38
2022-10-30T19:46:38.280Z,100590.84
2022-10-30T19:49:20.074Z,100598.66
2022-10-30T19:51:48.130Z,100581.91
2022-10-30T19:54:15.395Z,100588.81
2022-10-30T19:56:44.030Z,100588.88
2022-10-30T19:59:15.049Z,100590.63
2022-10-30T20:01:44.060Z,100591.38
2022-10-30T20:04:12.349Z,100589.41
2022-10-30T20:06:39.678Z,100592.75
2022-10-30T20:09:13.133Z,100592.38
2022-10-30T20:11:40.371Z,100595.63
2022-10-30T20:14:07.667Z,100603.28
2022-10-30T20:16:38.022Z,100596.75
2022-10-30T20:19:31.539Z,100597.16
2022-10-30T20:22:06.302Z,100596.47
2022-10-30T20:24:34.592Z,100593.91
2022-10-30T20:27:02.842Z,100607.81
2022-10-30T20:29:31.587Z,100602.47
2022-10-30T20:32:01.416Z,100610.38
2022-10-30T20:34:28.625Z,100614.72
2022-10-30T20:36:56.007Z,100616.22
2022-10-30T20:39:24.823Z,100612.56
2022-10-30T20:41:54.689Z,100613.22
2022-10-30T20:44:23.236Z,100626.03
2022-10-30T20:46:52.045Z,100626.72
2022-10-30T20:49:21.201Z,100631.00
2022-10-30T20:51:51.308Z,100626.72
2022-10-30T20:54:19.154Z,100633.03
2022-10-30T20:56:47.458Z,100637.38
2022-10-30T20:59:15.038Z,100640.84
2022-10-30T21:01:42.442Z,100643.47
2022-10-30T21:04:11.529Z,100640.09
2022-10-30T21:06:39.256Z,100646.81
2022-10-30T21:09:06.528Z,100647.44
2022-10-30T21:11:34.774Z,100646.28
2022-10-30T21:14:04.287Z,100643.50
2022-10-30T21:16:33.097Z,100653.06
2022-10-30T21:19:02.372Z,100644.09
2022-10-30T21:21:31.234Z,100652.00
2022-10-30T21:23:59.145Z,100647.41
2022-10-30T21:26:29.092Z,100647.41
2022-10-30T21:28:57.620Z,100646.34
2022-10-30T21:31:26.508Z,100641.69
2022-10-30T21:33:54.775Z,100644.16
2022-10-30T21:36:26.047Z,100641.44
2022-10-30T21:38:58.751Z,100640.47
2022-10-30T21:41:27.902Z,100644.16
2022-10-30T21:43:58.695Z,100645.03
2022-10-30T21:46:30.625Z,100634.47
2022-10-30T21:49:06.966Z,100635.13
2022-10-30T21:51:35.401Z,100647.03
2022-10-30T21:54:02.698Z,100637.13
2022-10-30T21:56:30.701Z,100646.63
2022-10-30T21:59:00.370Z,100645.00
2022-10-30T22:01:31.455Z,100642.53
2022-10-30T22:04:00.428Z,100643.03
2022-10-30T22:06:27.841Z,100639.09
2022-10-30T22:08:56.684Z,100650.44
2022-10-30T22:11:28.357Z,100650.28
2022-10-30T22:13:59.662Z,100641.72
2022-10-30T22:16:29.987Z,100645.75
2022-10-30T22:18:57.785Z,100642.69
2022-10-30T22:21:25.584Z,100640.63
2022-10-30T22:23:53.265Z,100643.00
2022-10-30T22:26:23.675Z,100653.25
2022-10-30T22:28:59.735Z,100634.81
2022-10-30T22:31:29.692Z,100645.13
2022-10-30T22:34:00.577Z,100647.59
2022-10-30T22:36:32.457Z,100643.91
2022-10-30T22:39:13.214Z,100646.19
2022-10-30T22:41:41.338Z,100654.22
2022-10-30T22:44:14.618Z,100640.31
2022-10-30T22:46:42.055Z,100640.63
2022-10-30T22:49:09.270Z,100649.56
2022-10-30T22:51:39.236Z,100643.44
2022-10-30T22:54:12.263Z,100641.19
2022-10-30T22:56:41.180Z,100630.53
2022-10-30T22:59:13.204Z,100632.19
2022-10-30T23:01:41.552Z,100641.50
2022-10-30T23:04:11.939Z,100643.78
2022-10-30T23:06:39.343Z,100633.06
2022-10-30T23:09:16.040Z,100643.47
2022-10-30T23:11:43.529Z,100640.91
2022-10-30T23:14:10.852Z,100645.41
2022-10-30T23:16:38.073Z,100635.75
2022-10-30T23:19:05.215Z,100637.31
2022-10-30T23:21:33.720Z,100646.09
2022-10-30T23:24:04.670Z,100633.88
2022-10-30T23:26:35.144Z,100643.19
2022-10-30T23:29:03.836Z,100638.97
2022-10-30T23:31:41.945Z,100629.19
2022-10-30T23:34:15.291Z,100628.31
2022-10-30T23:36:44.350Z,100633.13
2022-10-30T23:39:17.273Z,100633.81
2022-10-30T23:41:44.758Z,100634.47
2022-10-30T23:44:15.619Z,100630.06
2022-10-30T23:46:42.982Z,100630.31
2022-10-30T23:49:10.275Z,100637.38
2022-10-30T23:51:37.430Z,100622.13
2022-10-30T23:54:05.298Z,100624.41
2022-10-30T23:56:32.504Z,100619.16
2022-10-30T23:59:00.539Z,100620.88
